sensor_id;sensor_type;location;lat;lon;timestamp;P1;durP1;ratioP1;P2;durP2;ratioP2
76290;SDS011;65100;46.884;17.410;2023-05-31T00:01:32;14.37;;;8.90;;
76290;SDS011;65100;46.884;17.410;2023-05-31T00:03:58;16.10;;;8.93;;
76290;SDS011;65100;46.884;17.410;2023-05-31T00:06:23;14.10;;;8.68;;
76290;SDS011;65100;46.884;17.410;2023-05-31T00:08:49;15.47;;;9.20;;
76290;SDS011;65100;46.884;17.410;2023-05-31T00:11:15;16.87;;;9.33;;
76290;SDS011;65100;46.884;17.410;2023-05-31T00:13:40;15.95;;;9.30;;
76290;SDS011;65100;46.884;17.410;2023-05-31T00:16:06;17.10;;;9.20;;
76290;SDS011;65100;46.884;17.410;2023-05-31T00:18:32;16.00;;;8.70;;
76290;SDS011;65100;46.884;17.410;2023-05-31T00:20:58;16.27;;;8.90;;
76290;SDS011;65100;46.884;17.410;2023-05-31T00:23:23;16.17;;;9.40;;
76290;SDS011;65100;46.884;17.410;2023-05-31T00:25:49;18.50;;;9.43;;
76290;SDS011;65100;46.884;17.410;2023-05-31T00:28:14;17.43;;;9.60;;
76290;SDS011;65100;46.884;17.410;2023-05-31T00:30:40;17.75;;;9.20;;
76290;SDS011;65100;46.884;17.410;2023-05-31T00:33:05;15.23;;;9.07;;
76290;SDS011;65100;46.884;17.410;2023-05-31T00:35:31;15.53;;;9.50;;
76290;SDS011;65100;46.884;17.410;2023-05-31T00:37:56;14.77;;;9.02;;
76290;SDS011;65100;46.884;17.410;2023-05-31T00:40:23;14.77;;;8.37;;
76290;SDS011;65100;46.884;17.410;2023-05-31T00:42:48;15.80;;;9.20;;
76290;SDS011;65100;46.884;17.410;2023-05-31T00:45:14;14.87;;;8.80;;
76290;SDS011;65100;46.884;17.410;2023-05-31T00:47:39;14.97;;;8.40;;
76290;SDS011;65100;46.884;17.410;2023-05-31T00:50:07;15.30;;;9.10;;
76290;SDS011;65100;46.884;17.410;2023-05-31T00:52:32;16.48;;;8.82;;
76290;SDS011;65100;46.884;17.410;2023-05-31T00:55:00;17.27;;;8.43;;
76290;SDS011;65100;46.884;17.410;2023-05-31T00:57:26;13.32;;;8.30;;
76290;SDS011;65100;46.884;17.410;2023-05-31T00:59:52;13.70;;;8.03;;
76290;SDS011;65100;46.884;17.410;2023-05-31T01:02:18;13.17;;;7.80;;
76290;SDS011;65100;46.884;17.410;2023-05-31T01:04:43;14.47;;;8.17;;
76290;SDS011;65100;46.884;17.410;2023-05-31T01:07:09;15.80;;;8.43;;
76290;SDS011;65100;46.884;17.410;2023-05-31T01:09:35;14.13;;;8.03;;
76290;SDS011;65100;46.884;17.410;2023-05-31T01:20:49;15.25;;;7.93;;
76290;SDS011;65100;46.884;17.410;2023-05-31T01:23:22;14.35;;;7.80;;
76290;SDS011;65100;46.884;17.410;2023-05-31T01:28:42;13.30;;;7.70;;
76290;SDS011;65100;46.884;17.410;2023-05-31T01:31:11;12.73;;;7.67;;
76290;SDS011;65100;46.884;17.410;2023-05-31T01:33:41;12.60;;;7.43;;
76290;SDS011;65100;46.884;17.410;2023-05-31T01:36:07;12.82;;;7.72;;
76290;SDS011;65100;46.884;17.410;2023-05-31T01:38:33;15.53;;;7.80;;
76290;SDS011;65100;46.884;17.410;2023-05-31T01:40:58;13.77;;;7.60;;
76290;SDS011;65100;46.884;17.410;2023-05-31T01:43:25;15.93;;;7.77;;
76290;SDS011;65100;46.884;17.410;2023-05-31T01:45:52;15.98;;;7.60;;
76290;SDS011;65100;46.884;17.410;2023-05-31T01:48:19;15.73;;;7.82;;
76290;SDS011;65100;46.884;17.410;2023-05-31T01:50:45;15.10;;;7.80;;
76290;SDS011;65100;46.884;17.410;2023-05-31T01:53:10;16.35;;;8.27;;
76290;SDS011;65100;46.884;17.410;2023-05-31T01:55:36;14.40;;;8.10;;
76290;SDS011;65100;46.884;17.410;2023-05-31T01:58:01;13.50;;;7.70;;
76290;SDS011;65100;46.884;17.410;2023-05-31T02:00:30;13.60;;;7.30;;
76290;SDS011;65100;46.884;17.410;2023-05-31T02:02:56;13.35;;;7.75;;
76290;SDS011;65100;46.884;17.410;2023-05-31T02:05:22;16.58;;;7.75;;
76290;SDS011;65100;46.884;17.410;2023-05-31T02:07:48;14.07;;;7.47;;
76290;SDS011;65100;46.884;17.410;2023-05-31T02:10:14;13.10;;;7.45;;
76290;SDS011;65100;46.884;17.410;2023-05-31T02:12:40;14.60;;;7.20;;
76290;SDS011;65100;46.884;17.410;2023-05-31T02:15:06;14.82;;;7.72;;
76290;SDS011;65100;46.884;17.410;2023-05-31T02:17:36;14.00;;;8.25;;
76290;SDS011;65100;46.884;17.410;2023-05-31T02:20:06;14.27;;;7.70;;
76290;SDS011;65100;46.884;17.410;2023-05-31T02:22:34;13.20;;;7.20;;
76290;SDS011;65100;46.884;17.410;2023-05-31T02:24:59;13.63;;;7.30;;
76290;SDS011;65100;46.884;17.410;2023-05-31T02:27:25;15.07;;;7.20;;
76290;SDS011;65100;46.884;17.410;2023-05-31T02:29:50;13.50;;;7.13;;
76290;SDS011;65100;46.884;17.410;2023-05-31T02:32:15;13.47;;;7.23;;
76290;SDS011;65100;46.884;17.410;2023-05-31T02:34:41;13.90;;;7.03;;
76290;SDS011;65100;46.884;17.410;2023-05-31T02:37:07;17.60;;;7.70;;
76290;SDS011;65100;46.884;17.410;2023-05-31T02:39:33;12.13;;;7.20;;
76290;SDS011;65100;46.884;17.410;2023-05-31T02:41:59;13.70;;;6.97;;
76290;SDS011;65100;46.884;17.410;2023-05-31T02:44:24;13.50;;;7.43;;
76290;SDS011;65100;46.884;17.410;2023-05-31T02:46:50;13.23;;;6.80;;
76290;SDS011;65100;46.884;17.410;2023-05-31T02:49:15;14.48;;;7.22;;
76290;SDS011;65100;46.884;17.410;2023-05-31T02:51:41;13.03;;;7.37;;
76290;SDS011;65100;46.884;17.410;2023-05-31T02:54:06;15.50;;;7.23;;
76290;SDS011;65100;46.884;17.410;2023-05-31T02:56:32;12.80;;;6.90;;
76290;SDS011;65100;46.884;17.410;2023-05-31T02:58:58;11.87;;;7.00;;
76290;SDS011;65100;46.884;17.410;2023-05-31T03:01:23;14.75;;;7.00;;
76290;SDS011;65100;46.884;17.410;2023-05-31T03:03:48;13.50;;;7.27;;
76290;SDS011;65100;46.884;17.410;2023-05-31T03:06:14;17.00;;;7.33;;
76290;SDS011;65100;46.884;17.410;2023-05-31T03:08:44;13.45;;;7.22;;
76290;SDS011;65100;46.884;17.410;2023-05-31T03:11:10;13.00;;;7.35;;
76290;SDS011;65100;46.884;17.410;2023-05-31T03:13:35;12.50;;;7.00;;
76290;SDS011;65100;46.884;17.410;2023-05-31T03:16:00;13.17;;;7.17;;
76290;SDS011;65100;46.884;17.410;2023-05-31T03:18:26;12.40;;;6.70;;
76290;SDS011;65100;46.884;17.410;2023-05-31T03:20:52;17.42;;;7.38;;
76290;SDS011;65100;46.884;17.410;2023-05-31T03:23:17;13.67;;;6.97;;
76290;SDS011;65100;46.884;17.410;2023-05-31T03:25:42;13.10;;;6.60;;
76290;SDS011;65100;46.884;17.410;2023-05-31T03:28:08;12.98;;;6.85;;
76290;SDS011;65100;46.884;17.410;2023-05-31T03:30:33;12.97;;;6.40;;
76290;SDS011;65100;46.884;17.410;2023-05-31T03:32:59;13.07;;;7.03;;
76290;SDS011;65100;46.884;17.410;2023-05-31T03:35:25;12.43;;;6.72;;
76290;SDS011;65100;46.884;17.410;2023-05-31T03:37:52;14.35;;;6.65;;
76290;SDS011;65100;46.884;17.410;2023-05-31T03:40:18;14.40;;;6.50;;
76290;SDS011;65100;46.884;17.410;2023-05-31T03:42:43;14.90;;;6.37;;
76290;SDS011;65100;46.884;17.410;2023-05-31T03:45:09;13.83;;;6.53;;
76290;SDS011;65100;46.884;17.410;2023-05-31T03:47:34;16.60;;;7.10;;
76290;SDS011;65100;46.884;17.410;2023-05-31T03:50:00;14.27;;;6.90;;
76290;SDS011;65100;46.884;17.410;2023-05-31T03:52:28;12.23;;;6.80;;
76290;SDS011;65100;46.884;17.410;2023-05-31T03:54:54;13.45;;;6.47;;
76290;SDS011;65100;46.884;17.410;2023-05-31T03:57:19;11.97;;;6.80;;
76290;SDS011;65100;46.884;17.410;2023-05-31T03:59:45;12.82;;;6.03;;
76290;SDS011;65100;46.884;17.410;2023-05-31T04:02:10;11.90;;;6.23;;
76290;SDS011;65100;46.884;17.410;2023-05-31T04:04:36;12.70;;;6.67;;
76290;SDS011;65100;46.884;17.410;2023-05-31T04:07:01;11.10;;;6.00;;
76290;SDS011;65100;46.884;17.410;2023-05-31T04:09:27;14.33;;;6.33;;
76290;SDS011;65100;46.884;17.410;2023-05-31T04:11:52;12.33;;;6.20;;
76290;SDS011;65100;46.884;17.410;2023-05-31T04:14:17;12.50;;;6.47;;
76290;SDS011;65100;46.884;17.410;2023-05-31T04:16:43;13.77;;;6.20;;
76290;SDS011;65100;46.884;17.410;2023-05-31T04:19:08;12.47;;;6.17;;
76290;SDS011;65100;46.884;17.410;2023-05-31T04:21:35;13.67;;;6.30;;
76290;SDS011;65100;46.884;17.410;2023-05-31T04:24:01;12.00;;;6.50;;
76290;SDS011;65100;46.884;17.410;2023-05-31T04:26:26;14.10;;;6.20;;
76290;SDS011;65100;46.884;17.410;2023-05-31T04:28:54;10.77;;;5.95;;
76290;SDS011;65100;46.884;17.410;2023-05-31T04:31:19;13.70;;;6.10;;
76290;SDS011;65100;46.884;17.410;2023-05-31T04:33:49;14.48;;;6.63;;
76290;SDS011;65100;46.884;17.410;2023-05-31T04:36:19;13.98;;;6.40;;
76290;SDS011;65100;46.884;17.410;2023-05-31T04:38:45;12.25;;;5.97;;
76290;SDS011;65100;46.884;17.410;2023-05-31T04:41:12;13.02;;;6.20;;
76290;SDS011;65100;46.884;17.410;2023-05-31T04:43:39;13.43;;;6.00;;
76290;SDS011;65100;46.884;17.410;2023-05-31T04:46:05;13.45;;;6.20;;
76290;SDS011;65100;46.884;17.410;2023-05-31T04:48:30;11.57;;;6.30;;
76290;SDS011;65100;46.884;17.410;2023-05-31T04:50:56;13.10;;;6.15;;
76290;SDS011;65100;46.884;17.410;2023-05-31T04:53:24;13.63;;;6.18;;
76290;SDS011;65100;46.884;17.410;2023-05-31T04:55:49;12.07;;;6.07;;
76290;SDS011;65100;46.884;17.410;2023-05-31T04:58:16;12.25;;;6.28;;
76290;SDS011;65100;46.884;17.410;2023-05-31T05:00:42;11.37;;;6.20;;
76290;SDS011;65100;46.884;17.410;2023-05-31T05:03:08;13.30;;;6.22;;
76290;SDS011;65100;46.884;17.410;2023-05-31T05:05:35;14.68;;;6.28;;
76290;SDS011;65100;46.884;17.410;2023-05-31T05:08:00;13.00;;;6.40;;
76290;SDS011;65100;46.884;17.410;2023-05-31T05:10:26;13.10;;;5.93;;
76290;SDS011;65100;46.884;17.410;2023-05-31T05:12:51;12.60;;;6.25;;
76290;SDS011;65100;46.884;17.410;2023-05-31T05:15:17;13.73;;;7.20;;
76290;SDS011;65100;46.884;17.410;2023-05-31T05:17:42;13.20;;;6.67;;
76290;SDS011;65100;46.884;17.410;2023-05-31T05:20:10;13.90;;;6.88;;
76290;SDS011;65100;46.884;17.410;2023-05-31T05:22:36;12.90;;;6.50;;
76290;SDS011;65100;46.884;17.410;2023-05-31T05:25:02;14.70;;;6.47;;
76290;SDS011;65100;46.884;17.410;2023-05-31T05:27:28;13.43;;;6.43;;
76290;SDS011;65100;46.884;17.410;2023-05-31T05:29:53;15.87;;;6.30;;
76290;SDS011;65100;46.884;17.410;2023-05-31T05:32:18;12.33;;;6.57;;
76290;SDS011;65100;46.884;17.410;2023-05-31T05:34:44;12.27;;;6.35;;
76290;SDS011;65100;46.884;17.410;2023-05-31T05:37:09;11.87;;;6.57;;
76290;SDS011;65100;46.884;17.410;2023-05-31T05:39:35;13.13;;;6.87;;
76290;SDS011;65100;46.884;17.410;2023-05-31T05:42:01;13.40;;;6.90;;
76290;SDS011;65100;46.884;17.410;2023-05-31T05:44:27;15.93;;;6.57;;
76290;SDS011;65100;46.884;17.410;2023-05-31T05:46:53;12.43;;;6.63;;
76290;SDS011;65100;46.884;17.410;2023-05-31T05:49:18;13.37;;;6.90;;
76290;SDS011;65100;46.884;17.410;2023-05-31T05:51:44;12.25;;;6.80;;
76290;SDS011;65100;46.884;17.410;2023-05-31T05:54:10;15.03;;;7.00;;
76290;SDS011;65100;46.884;17.410;2023-05-31T05:56:35;12.82;;;6.60;;
76290;SDS011;65100;46.884;17.410;2023-05-31T05:59:01;12.57;;;6.50;;
76290;SDS011;65100;46.884;17.410;2023-05-31T06:01:26;12.77;;;6.70;;
76290;SDS011;65100;46.884;17.410;2023-05-31T06:03:52;13.40;;;6.85;;
76290;SDS011;65100;46.884;17.410;2023-05-31T06:06:19;16.77;;;8.38;;
76290;SDS011;65100;46.884;17.410;2023-05-31T06:08:45;14.43;;;7.80;;
76290;SDS011;65100;46.884;17.410;2023-05-31T06:11:12;13.57;;;7.15;;
76290;SDS011;65100;46.884;17.410;2023-05-31T06:13:38;13.05;;;7.18;;
76290;SDS011;65100;46.884;17.410;2023-05-31T06:16:03;11.97;;;7.10;;
76290;SDS011;65100;46.884;17.410;2023-05-31T06:18:30;15.32;;;7.22;;
76290;SDS011;65100;46.884;17.410;2023-05-31T06:20:56;15.23;;;7.28;;
76290;SDS011;65100;46.884;17.410;2023-05-31T06:23:21;15.57;;;7.37;;
76290;SDS011;65100;46.884;17.410;2023-05-31T06:25:47;13.43;;;7.33;;
76290;SDS011;65100;46.884;17.410;2023-05-31T06:28:12;14.13;;;7.33;;
76290;SDS011;65100;46.884;17.410;2023-05-31T06:30:38;13.13;;;7.23;;
76290;SDS011;65100;46.884;17.410;2023-05-31T06:33:04;14.38;;;7.80;;
76290;SDS011;65100;46.884;17.410;2023-05-31T06:35:29;13.33;;;6.90;;
76290;SDS011;65100;46.884;17.410;2023-05-31T06:37:55;15.68;;;7.05;;
76290;SDS011;65100;46.884;17.410;2023-05-31T06:40:21;14.93;;;7.37;;
76290;SDS011;65100;46.884;17.410;2023-05-31T06:42:47;16.27;;;7.35;;
76290;SDS011;65100;46.884;17.410;2023-05-31T06:45:12;13.03;;;7.17;;
76290;SDS011;65100;46.884;17.410;2023-05-31T06:47:38;14.20;;;7.23;;
76290;SDS011;65100;46.884;17.410;2023-05-31T06:50:03;14.50;;;7.80;;
76290;SDS011;65100;46.884;17.410;2023-05-31T06:52:29;14.17;;;7.23;;
76290;SDS011;65100;46.884;17.410;2023-05-31T06:54:55;16.25;;;8.57;;
76290;SDS011;65100;46.884;17.410;2023-05-31T06:57:20;16.43;;;7.93;;
76290;SDS011;65100;46.884;17.410;2023-05-31T06:59:45;17.20;;;7.23;;
76290;SDS011;65100;46.884;17.410;2023-05-31T07:02:11;14.10;;;8.10;;
76290;SDS011;65100;46.884;17.410;2023-05-31T07:04:36;13.00;;;6.57;;
76290;SDS011;65100;46.884;17.410;2023-05-31T07:07:02;14.70;;;7.40;;
76290;SDS011;65100;46.884;17.410;2023-05-31T07:09:28;14.05;;;7.15;;
76290;SDS011;65100;46.884;17.410;2023-05-31T07:11:54;14.40;;;7.28;;
76290;SDS011;65100;46.884;17.410;2023-05-31T07:14:20;13.50;;;7.10;;
76290;SDS011;65100;46.884;17.410;2023-05-31T07:16:47;13.30;;;7.28;;
76290;SDS011;65100;46.884;17.410;2023-05-31T07:19:13;12.52;;;7.07;;
76290;SDS011;65100;46.884;17.410;2023-05-31T07:21:38;12.60;;;6.90;;
76290;SDS011;65100;46.884;17.410;2023-05-31T07:24:04;16.20;;;7.33;;
76290;SDS011;65100;46.884;17.410;2023-05-31T07:26:30;12.90;;;6.73;;
76290;SDS011;65100;46.884;17.410;2023-05-31T07:28:55;14.38;;;7.32;;
76290;SDS011;65100;46.884;17.410;2023-05-31T07:31:21;16.30;;;7.73;;
76290;SDS011;65100;46.884;17.410;2023-05-31T07:33:47;16.38;;;8.82;;
76290;SDS011;65100;46.884;17.410;2023-05-31T07:36:12;13.33;;;7.00;;
76290;SDS011;65100;46.884;17.410;2023-05-31T07:38:38;15.90;;;6.73;;
76290;SDS011;65100;46.884;17.410;2023-05-31T07:41:04;12.73;;;7.10;;
76290;SDS011;65100;46.884;17.410;2023-05-31T07:43:30;15.52;;;6.95;;
76290;SDS011;65100;46.884;17.410;2023-05-31T07:45:56;14.07;;;6.82;;
76290;SDS011;65100;46.884;17.410;2023-05-31T07:48:22;15.13;;;6.70;;
76290;SDS011;65100;46.884;17.410;2023-05-31T07:50:48;12.95;;;6.60;;
76290;SDS011;65100;46.884;17.410;2023-05-31T07:53:14;13.30;;;7.00;;
76290;SDS011;65100;46.884;17.410;2023-05-31T07:55:40;14.17;;;7.53;;
76290;SDS011;65100;46.884;17.410;2023-05-31T07:58:05;17.00;;;7.38;;
76290;SDS011;65100;46.884;17.410;2023-05-31T08:00:31;13.53;;;7.03;;
76290;SDS011;65100;46.884;17.410;2023-05-31T08:02:56;15.27;;;7.47;;
76290;SDS011;65100;46.884;17.410;2023-05-31T08:05:22;15.80;;;7.17;;
76290;SDS011;65100;46.884;17.410;2023-05-31T08:07:48;14.07;;;7.67;;
76290;SDS011;65100;46.884;17.410;2023-05-31T08:10:14;13.15;;;7.28;;
76290;SDS011;65100;46.884;17.410;2023-05-31T08:12:41;13.82;;;6.88;;
76290;SDS011;65100;46.884;17.410;2023-05-31T08:15:07;12.07;;;7.00;;
76290;SDS011;65100;46.884;17.410;2023-05-31T08:20:40;12.25;;;7.05;;
76290;SDS011;65100;46.884;17.410;2023-05-31T08:23:05;12.90;;;7.10;;
76290;SDS011;65100;46.884;17.410;2023-05-31T08:25:31;12.77;;;6.97;;
76290;SDS011;65100;46.884;17.410;2023-05-31T08:27:56;12.30;;;7.00;;
76290;SDS011;65100;46.884;17.410;2023-05-31T08:30:22;12.37;;;6.73;;
76290;SDS011;65100;46.884;17.410;2023-05-31T08:32:48;13.70;;;7.17;;
76290;SDS011;65100;46.884;17.410;2023-05-31T08:35:13;14.13;;;7.18;;
76290;SDS011;65100;46.884;17.410;2023-05-31T08:37:39;12.13;;;6.73;;
76290;SDS011;65100;46.884;17.410;2023-05-31T08:40:05;14.15;;;7.18;;
76290;SDS011;65100;46.884;17.410;2023-05-31T08:42:39;14.48;;;7.00;;
76290;SDS011;65100;46.884;17.410;2023-05-31T08:45:12;14.17;;;7.27;;
76290;SDS011;65100;46.884;17.410;2023-05-31T08:47:45;14.93;;;7.65;;
76290;SDS011;65100;46.884;17.410;2023-05-31T08:50:36;15.68;;;8.00;;
76290;SDS011;65100;46.884;17.410;2023-05-31T08:53:03;13.73;;;7.00;;
76290;SDS011;65100;46.884;17.410;2023-05-31T08:55:30;15.60;;;6.72;;
76290;SDS011;65100;46.884;17.410;2023-05-31T08:57:56;13.67;;;6.47;;
76290;SDS011;65100;46.884;17.410;2023-05-31T09:00:22;13.02;;;6.10;;
76290;SDS011;65100;46.884;17.410;2023-05-31T09:02:49;12.43;;;6.47;;
76290;SDS011;65100;46.884;17.410;2023-05-31T09:05:16;11.13;;;6.43;;
76290;SDS011;65100;46.884;17.410;2023-05-31T09:07:42;13.15;;;6.70;;
76290;SDS011;65100;46.884;17.410;2023-05-31T09:10:08;15.60;;;6.53;;
76290;SDS011;65100;46.884;17.410;2023-05-31T09:12:37;12.15;;;6.40;;
76290;SDS011;65100;46.884;17.410;2023-05-31T09:15:03;13.85;;;6.80;;
76290;SDS011;65100;46.884;17.410;2023-05-31T09:17:31;11.05;;;6.70;;
76290;SDS011;65100;46.884;17.410;2023-05-31T09:19:57;14.33;;;6.70;;
76290;SDS011;65100;46.884;17.410;2023-05-31T09:22:24;11.25;;;6.40;;
76290;SDS011;65100;46.884;17.410;2023-05-31T09:24:56;13.05;;;6.45;;
76290;SDS011;65100;46.884;17.410;2023-05-31T09:27:23;11.23;;;6.50;;
76290;SDS011;65100;46.884;17.410;2023-05-31T09:29:53;12.98;;;6.63;;
76290;SDS011;65100;46.884;17.410;2023-05-31T09:32:19;14.30;;;6.43;;
76290;SDS011;65100;46.884;17.410;2023-05-31T09:34:45;15.27;;;6.73;;
76290;SDS011;65100;46.884;17.410;2023-05-31T09:37:21;12.32;;;6.88;;
76290;SDS011;65100;46.884;17.410;2023-05-31T09:39:54;13.77;;;6.75;;
76290;SDS011;65100;46.884;17.410;2023-05-31T09:42:21;14.55;;;7.40;;
76290;SDS011;65100;46.884;17.410;2023-05-31T09:44:47;12.33;;;6.70;;
76290;SDS011;65100;46.884;17.410;2023-05-31T09:47:13;11.13;;;6.63;;
76290;SDS011;65100;46.884;17.410;2023-05-31T09:49:39;13.52;;;6.72;;
76290;SDS011;65100;46.884;17.410;2023-05-31T09:52:10;11.73;;;7.00;;
76290;SDS011;65100;46.884;17.410;2023-05-31T09:54:41;11.13;;;6.60;;
76290;SDS011;65100;46.884;17.410;2023-05-31T09:57:06;16.37;;;7.80;;
76290;SDS011;65100;46.884;17.410;2023-05-31T09:59:37;12.07;;;7.20;;
76290;SDS011;65100;46.884;17.410;2023-05-31T10:02:04;11.35;;;6.80;;
76290;SDS011;65100;46.884;17.410;2023-05-31T10:04:31;12.87;;;6.90;;
76290;SDS011;65100;46.884;17.410;2023-05-31T10:07:00;15.27;;;6.80;;
76290;SDS011;65100;46.884;17.410;2023-05-31T10:09:27;11.85;;;7.00;;
76290;SDS011;65100;46.884;17.410;2023-05-31T10:11:53;11.37;;;6.90;;
76290;SDS011;65100;46.884;17.410;2023-05-31T10:14:25;12.00;;;7.07;;
76290;SDS011;65100;46.884;17.410;2023-05-31T10:16:53;13.02;;;7.03;;
76290;SDS011;65100;46.884;17.410;2023-05-31T10:19:23;12.93;;;6.63;;
76290;SDS011;65100;46.884;17.410;2023-05-31T10:21:52;12.82;;;7.03;;
76290;SDS011;65100;46.884;17.410;2023-05-31T10:24:25;11.77;;;7.25;;
76290;SDS011;65100;46.884;17.410;2023-05-31T10:27:03;13.30;;;7.30;;
76290;SDS011;65100;46.884;17.410;2023-05-31T10:29:38;11.23;;;7.30;;
76290;SDS011;65100;46.884;17.410;2023-05-31T10:32:23;13.82;;;7.80;;
76290;SDS011;65100;46.884;17.410;2023-05-31T10:34:52;13.65;;;6.70;;
76290;SDS011;65100;46.884;17.410;2023-05-31T10:37:18;14.48;;;7.47;;
76290;SDS011;65100;46.884;17.410;2023-05-31T10:39:54;13.60;;;7.20;;
76290;SDS011;65100;46.884;17.410;2023-05-31T10:42:47;14.20;;;6.97;;
76290;SDS011;65100;46.884;17.410;2023-05-31T10:45:38;12.32;;;7.05;;
76290;SDS011;65100;46.884;17.410;2023-05-31T10:50:51;10.98;;;6.88;;
76290;SDS011;65100;46.884;17.410;2023-05-31T10:53:27;12.73;;;7.20;;
76290;SDS011;65100;46.884;17.410;2023-05-31T10:56:00;11.88;;;7.07;;
76290;SDS011;65100;46.884;17.410;2023-05-31T10:58:29;14.02;;;8.00;;
76290;SDS011;65100;46.884;17.410;2023-05-31T11:00:56;14.23;;;7.20;;
76290;SDS011;65100;46.884;17.410;2023-05-31T11:03:23;12.63;;;7.10;;
76290;SDS011;65100;46.884;17.410;2023-05-31T11:05:59;11.97;;;7.17;;
76290;SDS011;65100;46.884;17.410;2023-05-31T11:08:26;11.90;;;7.13;;
76290;SDS011;65100;46.884;17.410;2023-05-31T11:11:08;13.20;;;7.28;;
76290;SDS011;65100;46.884;17.410;2023-05-31T11:14:00;11.98;;;7.10;;
76290;SDS011;65100;46.884;17.410;2023-05-31T11:16:27;13.15;;;7.03;;
76290;SDS011;65100;46.884;17.410;2023-05-31T11:27:13;13.32;;;7.35;;
76290;SDS011;65100;46.884;17.410;2023-05-31T11:32:16;15.20;;;7.73;;
76290;SDS011;65100;46.884;17.410;2023-05-31T11:34:56;13.25;;;7.20;;
76290;SDS011;65100;46.884;17.410;2023-05-31T11:37:23;12.20;;;7.18;;
76290;SDS011;65100;46.884;17.410;2023-05-31T11:39:53;12.73;;;7.60;;
76290;SDS011;65100;46.884;17.410;2023-05-31T11:42:19;12.40;;;7.38;;
76290;SDS011;65100;46.884;17.410;2023-05-31T11:44:46;12.70;;;7.77;;
76290;SDS011;65100;46.884;17.410;2023-05-31T11:49:50;12.40;;;7.00;;
76290;SDS011;65100;46.884;17.410;2023-05-31T11:52:16;13.80;;;7.93;;
76290;SDS011;65100;46.884;17.410;2023-05-31T11:54:47;13.10;;;7.18;;
76290;SDS011;65100;46.884;17.410;2023-05-31T11:57:14;13.30;;;7.50;;
76290;SDS011;65100;46.884;17.410;2023-05-31T11:59:41;12.85;;;7.65;;
76290;SDS011;65100;46.884;17.410;2023-05-31T12:02:08;11.23;;;7.30;;
76290;SDS011;65100;46.884;17.410;2023-05-31T12:04:35;14.20;;;8.57;;
76290;SDS011;65100;46.884;17.410;2023-05-31T12:07:06;14.10;;;7.55;;
76290;SDS011;65100;46.884;17.410;2023-05-31T12:09:36;12.63;;;7.20;;
76290;SDS011;65100;46.884;17.410;2023-05-31T12:12:03;13.63;;;7.50;;
76290;SDS011;65100;46.884;17.410;2023-05-31T12:14:33;14.85;;;7.88;;
76290;SDS011;65100;46.884;17.410;2023-05-31T12:17:02;13.30;;;7.43;;
76290;SDS011;65100;46.884;17.410;2023-05-31T12:19:29;13.50;;;7.70;;
76290;SDS011;65100;46.884;17.410;2023-05-31T12:21:55;13.03;;;7.73;;
76290;SDS011;65100;46.884;17.410;2023-05-31T12:24:21;15.13;;;7.72;;
76290;SDS011;65100;46.884;17.410;2023-05-31T12:26:47;14.83;;;8.20;;
76290;SDS011;65100;46.884;17.410;2023-05-31T12:29:16;13.80;;;8.55;;
76290;SDS011;65100;46.884;17.410;2023-05-31T12:31:43;16.80;;;9.23;;
76290;SDS011;65100;46.884;17.410;2023-05-31T12:34:11;15.23;;;9.10;;
76290;SDS011;65100;46.884;17.410;2023-05-31T12:36:42;15.82;;;9.57;;
76290;SDS011;65100;46.884;17.410;2023-05-31T12:39:11;16.27;;;8.00;;
76290;SDS011;65100;46.884;17.410;2023-05-31T12:41:42;17.48;;;8.35;;
76290;SDS011;65100;46.884;17.410;2023-05-31T12:44:09;14.07;;;8.25;;
76290;SDS011;65100;46.884;17.410;2023-05-31T12:46:40;15.80;;;8.45;;
76290;SDS011;65100;46.884;17.410;2023-05-31T12:51:58;16.67;;;9.00;;
76290;SDS011;65100;46.884;17.410;2023-05-31T12:54:26;14.13;;;8.30;;
76290;SDS011;65100;46.884;17.410;2023-05-31T12:56:52;15.88;;;8.77;;
76290;SDS011;65100;46.884;17.410;2023-05-31T12:59:18;14.32;;;8.75;;
76290;SDS011;65100;46.884;17.410;2023-05-31T13:01:44;14.90;;;8.40;;
76290;SDS011;65100;46.884;17.410;2023-05-31T13:04:10;13.88;;;7.93;;
76290;SDS011;65100;46.884;17.410;2023-05-31T13:06:37;14.00;;;8.15;;
76290;SDS011;65100;46.884;17.410;2023-05-31T13:09:03;13.20;;;8.00;;
76290;SDS011;65100;46.884;17.410;2023-05-31T13:11:36;12.10;;;8.10;;
76290;SDS011;65100;46.884;17.410;2023-05-31T13:14:02;12.88;;;8.27;;
76290;SDS011;65100;46.884;17.410;2023-05-31T13:16:30;13.00;;;8.35;;
76290;SDS011;65100;46.884;17.410;2023-05-31T13:18:57;14.90;;;8.50;;
76290;SDS011;65100;46.884;17.410;2023-05-31T13:21:23;18.00;;;8.67;;
76290;SDS011;65100;46.884;17.410;2023-05-31T13:23:49;17.70;;;9.00;;
76290;SDS011;65100;46.884;17.410;2023-05-31T13:26:14;16.30;;;9.15;;
76290;SDS011;65100;46.884;17.410;2023-05-31T13:28:40;14.93;;;9.53;;
76290;SDS011;65100;46.884;17.410;2023-05-31T13:31:06;14.93;;;8.97;;
76290;SDS011;65100;46.884;17.410;2023-05-31T13:33:31;16.77;;;8.23;;
76290;SDS011;65100;46.884;17.410;2023-05-31T13:35:57;18.47;;;8.13;;
76290;SDS011;65100;46.884;17.410;2023-05-31T13:38:23;14.82;;;8.40;;
76290;SDS011;65100;46.884;17.410;2023-05-31T13:40:49;14.83;;;8.10;;
76290;SDS011;65100;46.884;17.410;2023-05-31T13:43:18;13.35;;;8.20;;
76290;SDS011;65100;46.884;17.410;2023-05-31T13:45:49;15.45;;;8.35;;
76290;SDS011;65100;46.884;17.410;2023-05-31T13:48:18;15.82;;;8.43;;
76290;SDS011;65100;46.884;17.410;2023-05-31T13:50:44;13.52;;;8.23;;
76290;SDS011;65100;46.884;17.410;2023-05-31T13:53:09;15.67;;;8.13;;
76290;SDS011;65100;46.884;17.410;2023-05-31T13:55:36;12.57;;;8.10;;
76290;SDS011;65100;46.884;17.410;2023-05-31T13:58:05;13.82;;;9.27;;
76290;SDS011;65100;46.884;17.410;2023-05-31T14:00:31;13.40;;;8.50;;
76290;SDS011;65100;46.884;17.410;2023-05-31T14:02:56;13.13;;;8.00;;
76290;SDS011;65100;46.884;17.410;2023-05-31T14:05:22;15.40;;;8.45;;
76290;SDS011;65100;46.884;17.410;2023-05-31T14:07:48;16.33;;;8.83;;
76290;SDS011;65100;46.884;17.410;2023-05-31T14:10:14;15.25;;;8.25;;
76290;SDS011;65100;46.884;17.410;2023-05-31T14:12:40;12.73;;;7.90;;
76290;SDS011;65100;46.884;17.410;2023-05-31T14:15:06;16.52;;;8.68;;
76290;SDS011;65100;46.884;17.410;2023-05-31T14:17:32;16.67;;;8.50;;
76290;SDS011;65100;46.884;17.410;2023-05-31T14:19:57;17.63;;;8.73;;
76290;SDS011;65100;46.884;17.410;2023-05-31T14:22:23;14.10;;;8.73;;
76290;SDS011;65100;46.884;17.410;2023-05-31T14:24:49;15.77;;;8.80;;
76290;SDS011;65100;46.884;17.410;2023-05-31T14:27:15;15.13;;;9.25;;
76290;SDS011;65100;46.884;17.410;2023-05-31T14:29:43;14.73;;;9.13;;
76290;SDS011;65100;46.884;17.410;2023-05-31T14:32:09;16.77;;;9.18;;
76290;SDS011;65100;46.884;17.410;2023-05-31T14:34:37;16.98;;;9.35;;
76290;SDS011;65100;46.884;17.410;2023-05-31T14:37:04;15.10;;;9.50;;
76290;SDS011;65100;46.884;17.410;2023-05-31T14:39:30;14.60;;;9.05;;
76290;SDS011;65100;46.884;17.410;2023-05-31T14:41:56;15.60;;;8.90;;
76290;SDS011;65100;46.884;17.410;2023-05-31T14:44:22;16.52;;;9.20;;
76290;SDS011;65100;46.884;17.410;2023-05-31T14:46:47;14.97;;;8.90;;
76290;SDS011;65100;46.884;17.410;2023-05-31T14:49:13;14.90;;;8.60;;
76290;SDS011;65100;46.884;17.410;2023-05-31T14:51:38;13.83;;;8.97;;
76290;SDS011;65100;46.884;17.410;2023-05-31T14:54:04;13.17;;;8.57;;